sensor_id;sensor_type;location;lat;lon;timestamp;pressure;altitude;pressure_sealevel;temperature;humidity
20710;BME280;10516;51.518;9.864;2022-12-20T00:00:52;99052.56;;;0.70;94.35
20710;BME280;10516;51.518;9.864;2022-12-20T00:03:18;99046.41;;;0.63;94.64
20710;BME280;10516;51.518;9.864;2022-12-20T00:05:44;99062.78;;;0.94;94.57
20710;BME280;10516;51.518;9.864;2022-12-20T00:08:10;99063.97;;;0.77;94.34
20710;BME280;10516;51.518;9.864;2022-12-20T00:10:42;99063.72;;;0.72;95.05
20710;BME280;10516;51.518;9.864;2022-12-20T00:13:07;99063.97;;;0.77;95.22
20710;BME280;10516;51.518;9.864;2022-12-20T00:15:34;99064.53;;;1.02;94.46
20710;BME280;10516;51.518;9.864;2022-12-20T00:18:00;99066.97;;;1.03;93.93
20710;BME280;10516;51.518;9.864;2022-12-20T00:20:26;99048.75;;;1.02;93.67
20710;BME280;10516;51.518;9.864;2022-12-20T00:22:52;99045.13;;;0.88;94.12
20710;BME280;10516;51.518;9.864;2022-12-20T00:25:18;99047.94;;;0.87;94.14
20710;BME280;10516;51.518;9.864;2022-12-20T00:27:45;99052.56;;;0.99;94.16
20710;BME280;10516;51.518;9.864;2022-12-20T00:30:11;99037.97;;;0.97;94.43
20710;BME280;10516;51.518;9.864;2022-12-20T00:32:37;99033.72;;;0.96;94.14
20710;BME280;10516;51.518;9.864;2022-12-20T00:35:03;99031.06;;;1.10;94.09
20710;BME280;10516;51.518;9.864;2022-12-20T00:37:28;99008.75;;;0.85;94.21
20710;BME280;10516;51.518;9.864;2022-12-20T00:39:54;99030.56;;;1.00;94.38
20710;BME280;10516;51.518;9.864;2022-12-20T00:42:19;99027.28;;;1.13;94.39
20710;BME280;10516;51.518;9.864;2022-12-20T00:44:45;99017.03;;;1.18;93.41
20710;BME280;10516;51.518;9.864;2022-12-20T00:47:10;99018.91;;;1.24;92.06
20710;BME280;10516;51.518;9.864;2022-12-20T00:49:35;99020.25;;;1.34;92.59
20710;BME280;10516;51.518;9.864;2022-12-20T00:52:01;99007.91;;;1.35;92.30
20710;BME280;10516;51.518;9.864;2022-12-20T00:54:26;99012.72;;;1.31;93.07
20710;BME280;10516;51.518;9.864;2022-12-20T00:56:52;99016.09;;;1.25;93.89
20710;BME280;10516;51.518;9.864;2022-12-20T00:59:17;99025.78;;;1.25;94.17
20710;BME280;10516;51.518;9.864;2022-12-20T01:01:42;99018.34;;;1.28;94.24
20710;BME280;10516;51.518;9.864;2022-12-20T01:04:08;99010.63;;;1.27;93.72
20710;BME280;10516;51.518;9.864;2022-12-20T01:06:33;99003.41;;;1.29;93.37
20710;BME280;10516;51.518;9.864;2022-12-20T01:08:59;98992.88;;;1.29;93.43
20710;BME280;10516;51.518;9.864;2022-12-20T01:11:37;98999.47;;;1.39;92.87
20710;BME280;10516;51.518;9.864;2022-12-20T01:14:06;98992.97;;;1.35;92.73
20710;BME280;10516;51.518;9.864;2022-12-20T01:16:37;98994.22;;;1.39;92.84
20710;BME280;10516;51.518;9.864;2022-12-20T01:19:04;99003.34;;;1.43;93.11
20710;BME280;10516;51.518;9.864;2022-12-20T01:21:29;99010.22;;;1.44;91.86
20710;BME280;10516;51.518;9.864;2022-12-20T01:23:55;99008.34;;;1.38;92.34
20710;BME280;10516;51.518;9.864;2022-12-20T01:26:23;99013.25;;;1.41;92.64
20710;BME280;10516;51.518;9.864;2022-12-20T01:28:52;99006.34;;;1.40;92.20
20710;BME280;10516;51.518;9.864;2022-12-20T01:31:18;99001.41;;;1.52;92.21
20710;BME280;10516;51.518;9.864;2022-12-20T01:33:45;98992.84;;;1.43;92.20
20710;BME280;10516;51.518;9.864;2022-12-20T01:36:14;99002.88;;;1.40;92.81
20710;BME280;10516;51.518;9.864;2022-12-20T01:38:41;98992.13;;;1.35;92.63
20710;BME280;10516;51.518;9.864;2022-12-20T01:41:06;98991.94;;;1.36;93.78
20710;BME280;10516;51.518;9.864;2022-12-20T01:46:10;98981.63;;;1.35;93.74
20710;BME280;10516;51.518;9.864;2022-12-20T01:48:35;99005.22;;;1.49;92.56
20710;BME280;10516;51.518;9.864;2022-12-20T01:51:01;98993.25;;;1.47;92.41
20710;BME280;10516;51.518;9.864;2022-12-20T01:53:26;98990.84;;;1.45;92.95
20710;BME280;10516;51.518;9.864;2022-12-20T01:55:52;99001.34;;;1.45;92.85
20710;BME280;10516;51.518;9.864;2022-12-20T01:58:19;98991.31;;;1.56;91.36
20710;BME280;10516;51.518;9.864;2022-12-20T02:00:46;98975.19;;;1.59;91.77
20710;BME280;10516;51.518;9.864;2022-12-20T02:03:13;98966.41;;;1.51;91.48
20710;BME280;10516;51.518;9.864;2022-12-20T02:05:41;98969.66;;;1.53;92.69
20710;BME280;10516;51.518;9.864;2022-12-20T02:08:10;98963.34;;;1.48;93.33
20710;BME280;10516;51.518;9.864;2022-12-20T02:16:08;98980.94;;;1.26;95.14
20710;BME280;10516;51.518;9.864;2022-12-20T02:18:47;98975.53;;;1.34;94.53
20710;BME280;10516;51.518;9.864;2022-12-20T02:21:30;98969.03;;;1.30;95.66
20710;BME280;10516;51.518;9.864;2022-12-20T02:27:18;98975.91;;;1.31;95.63
20710;BME280;10516;51.518;9.864;2022-12-20T02:29:55;98963.31;;;1.27;95.98
20710;BME280;10516;51.518;9.864;2022-12-20T02:32:25;98976.25;;;1.43;94.78
20710;BME280;10516;51.518;9.864;2022-12-20T02:34:53;98978.81;;;1.36;95.05
20710;BME280;10516;51.518;9.864;2022-12-20T02:37:19;98980.50;;;1.44;94.48
20710;BME280;10516;51.518;9.864;2022-12-20T02:39:45;98974.78;;;1.40;94.28
20710;BME280;10516;51.518;9.864;2022-12-20T02:42:13;98980.13;;;1.47;94.96
20710;BME280;10516;51.518;9.864;2022-12-20T02:44:49;98976.09;;;1.51;94.03
20710;BME280;10516;51.518;9.864;2022-12-20T02:47:50;98967.66;;;1.56;93.68
20710;BME280;10516;51.518;9.864;2022-12-20T02:50:20;98958.78;;;1.57;93.35
20710;BME280;10516;51.518;9.864;2022-12-20T02:52:47;98959.66;;;1.64;94.11
20710;BME280;10516;51.518;9.864;2022-12-20T02:55:13;98952.50;;;1.58;93.63
20710;BME280;10516;51.518;9.864;2022-12-20T02:57:44;98947.91;;;1.66;93.72
20710;BME280;10516;51.518;9.864;2022-12-20T03:00:18;98939.25;;;1.66;93.23
20710;BME280;10516;51.518;9.864;2022-12-20T03:02:46;98944.59;;;1.79;93.40
20710;BME280;10516;51.518;9.864;2022-12-20T03:05:33;98927.94;;;1.72;93.46
20710;BME280;10516;51.518;9.864;2022-12-20T03:08:00;98934.81;;;1.73;93.30
20710;BME280;10516;51.518;9.864;2022-12-20T03:10:25;98932.34;;;1.65;93.69
20710;BME280;10516;51.518;9.864;2022-12-20T03:12:51;98931.78;;;1.69;93.69
20710;BME280;10516;51.518;9.864;2022-12-20T03:15:16;98938.66;;;1.70;93.87
20710;BME280;10516;51.518;9.864;2022-12-20T03:17:42;98943.94;;;1.70;94.18
20710;BME280;10516;51.518;9.864;2022-12-20T03:20:08;98929.84;;;1.57;94.28
20710;BME280;10516;51.518;9.864;2022-12-20T03:22:35;98923.19;;;1.61;94.04
20710;BME280;10516;51.518;9.864;2022-12-20T03:25:01;98932.34;;;1.65;93.63
20710;BME280;10516;51.518;9.864;2022-12-20T03:27:29;98929.28;;;1.61;92.99
20710;BME280;10516;51.518;9.864;2022-12-20T03:29:54;98934.59;;;1.68;93.76
20710;BME280;10516;51.518;9.864;2022-12-20T03:32:20;98943.38;;;1.75;93.05
20710;BME280;10516;51.518;9.864;2022-12-20T03:34:46;98944.59;;;1.79;93.10
20710;BME280;10516;51.518;9.864;2022-12-20T03:37:11;98951.63;;;1.72;93.76
20710;BME280;10516;51.518;9.864;2022-12-20T03:39:37;98942.91;;;1.71;94.36
20710;BME280;10516;51.518;9.864;2022-12-20T03:42:02;98943.94;;;1.70;94.42
20710;BME280;10516;51.518;9.864;2022-12-20T03:44:28;98948.88;;;1.59;94.62
20710;BME280;10516;51.518;9.864;2022-12-20T03:46:53;98948.63;;;1.53;95.44
20710;BME280;10516;51.518;9.864;2022-12-20T03:49:18;98939.13;;;1.52;95.02
20710;BME280;10516;51.518;9.864;2022-12-20T03:51:44;98936.16;;;1.62;94.39
20710;BME280;10516;51.518;9.864;2022-12-20T03:54:09;98928.81;;;1.58;93.70
20710;BME280;10516;51.518;9.864;2022-12-20T03:56:34;98940.03;;;1.66;94.23
20710;BME280;10516;51.518;9.864;2022-12-20T03:59:00;98941.72;;;1.74;93.40
20710;BME280;10516;51.518;9.864;2022-12-20T04:01:27;98959.44;;;1.86;92.91
20710;BME280;10516;51.518;9.864;2022-12-20T04:03:53;98952.97;;;1.89;92.94
20710;BME280;10516;51.518;9.864;2022-12-20T04:06:22;98930.69;;;1.85;93.03
20710;BME280;10516;51.518;9.864;2022-12-20T04:08:48;98941.47;;;1.69;93.57
20710;BME280;10516;51.518;9.864;2022-12-20T04:11:14;98944.44;;;1.59;95.82
20710;BME280;10516;51.518;9.864;2022-12-20T04:13:41;98935.38;;;1.62;96.28
20710;BME280;10516;51.518;9.864;2022-12-20T04:16:07;98939.97;;;1.60;95.45
20710;BME280;10516;51.518;9.864;2022-12-20T04:18:32;98929.09;;;1.63;95.06
20710;BME280;10516;51.518;9.864;2022-12-20T04:21:02;98937.34;;;1.60;95.80
20710;BME280;10516;51.518;9.864;2022-12-20T04:23:28;98934.16;;;1.64;95.87
20710;BME280;10516;51.518;9.864;2022-12-20T04:25:53;98920.25;;;1.70;95.29
20710;BME280;10516;51.518;9.864;2022-12-20T04:28:18;98915.56;;;1.66;94.91
20710;BME280;10516;51.518;9.864;2022-12-20T04:30:44;98916.19;;;1.68;94.32
20710;BME280;10516;51.518;9.864;2022-12-20T04:33:09;98922.88;;;1.70;94.13
20710;BME280;10516;51.518;9.864;2022-12-20T04:35:36;98925.94;;;1.74;93.98
20710;BME280;10516;51.518;9.864;2022-12-20T04:38:01;98938.66;;;1.70;96.01
20710;BME280;10516;51.518;9.864;2022-12-20T04:40:27;98937.78;;;1.63;94.66
20710;BME280;10516;51.518;9.864;2022-12-20T04:42:52;98942.72;;;1.73;95.35
20710;BME280;10516;51.518;9.864;2022-12-20T04:45:18;98932.78;;;1.68;95.08
20710;BME280;10516;51.518;9.864;2022-12-20T04:47:43;98940.34;;;1.78;94.41
20710;BME280;10516;51.518;9.864;2022-12-20T04:50:08;98933.53;;;1.62;95.62
20710;BME280;10516;51.518;9.864;2022-12-20T04:52:34;98931.47;;;1.58;96.26
20710;BME280;10516;51.518;9.864;2022-12-20T04:55:18;98927.84;;;1.59;97.42
20710;BME280;10516;51.518;9.864;2022-12-20T04:57:43;98938.72;;;1.77;93.93
20710;BME280;10516;51.518;9.864;2022-12-20T05:00:09;98933.31;;;1.85;93.69
20710;BME280;10516;51.518;9.864;2022-12-20T05:02:35;98921.91;;;1.78;94.45
20710;BME280;10516;51.518;9.864;2022-12-20T05:05:00;98930.53;;;1.93;92.91
20710;BME280;10516;51.518;9.864;2022-12-20T05:07:25;98953.91;;;2.02;91.69
20710;BME280;10516;51.518;9.864;2022-12-20T05:09:51;98944.56;;;2.00;92.03
20710;BME280;10516;51.518;9.864;2022-12-20T05:12:17;98936.03;;;1.98;92.50
20710;BME280;10516;51.518;9.864;2022-12-20T05:14:42;98909.47;;;1.93;93.33
20710;BME280;10516;51.518;9.864;2022-12-20T05:17:08;98920.00;;;1.93;93.99
20710;BME280;10516;51.518;9.864;2022-12-20T05:19:33;98920.00;;;1.93;93.05
20710;BME280;10516;51.518;9.864;2022-12-20T05:21:59;98906.63;;;1.88;94.11
20710;BME280;10516;51.518;9.864;2022-12-20T05:24:43;98925.03;;;2.15;91.81
20710;BME280;10516;51.518;9.864;2022-12-20T05:27:27;98912.59;;;2.03;91.74
20710;BME280;10516;51.518;9.864;2022-12-20T05:29:52;98904.88;;;2.01;91.69
20710;BME280;10516;51.518;9.864;2022-12-20T05:32:17;98912.25;;;2.12;91.53
20710;BME280;10516;51.518;9.864;2022-12-20T05:34:43;98914.50;;;2.15;91.29
20710;BME280;10516;51.518;9.864;2022-12-20T05:37:08;98923.22;;;2.16;91.27
20710;BME280;10516;51.518;9.864;2022-12-20T05:39:33;98934.94;;;2.13;91.88
20710;BME280;10516;51.518;9.864;2022-12-20T05:41:59;98920.81;;;2.21;94.06
20710;BME280;10516;51.518;9.864;2022-12-20T05:44:24;98928.78;;;2.34;94.21
20710;BME280;10516;51.518;9.864;2022-12-20T05:46:49;98916.78;;;2.25;94.31
20710;BME280;10516;51.518;9.864;2022-12-20T05:49:15;98918.56;;;2.18;95.13
20710;BME280;10516;51.518;9.864;2022-12-20T05:51:40;98923.41;;;2.14;94.72
20710;BME280;10516;51.518;9.864;2022-12-20T05:54:05;98916.66;;;2.05;97.64
20710;BME280;10516;51.518;9.864;2022-12-20T05:56:31;98918.34;;;2.13;98.61
20710;BME280;10516;51.518;9.864;2022-12-20T05:58:56;98901.31;;;2.09;97.48
20710;BME280;10516;51.518;9.864;2022-12-20T06:01:23;98908.63;;;2.13;95.81
20710;BME280;10516;51.518;9.864;2022-12-20T06:03:48;98902.34;;;2.14;95.75
20710;BME280;10516;51.518;9.864;2022-12-20T06:06:15;98914.88;;;2.40;93.23
20710;BME280;10516;51.518;9.864;2022-12-20T06:08:40;98909.94;;;2.31;92.48
20710;BME280;10516;51.518;9.864;2022-12-20T06:11:06;98904.66;;;2.31;92.85
20710;BME280;10516;51.518;9.864;2022-12-20T06:13:31;98902.03;;;2.31;93.12
20710;BME280;10516;51.518;9.864;2022-12-20T06:15:56;98900.03;;;2.33;94.04
20710;BME280;10516;51.518;9.864;2022-12-20T06:18:22;98889.00;;;2.16;93.68
20710;BME280;10516;51.518;9.864;2022-12-20T06:20:52;98900.84;;;2.33;93.57
20710;BME280;10516;51.518;9.864;2022-12-20T06:23:18;98901.22;;;2.30;93.90
20710;BME280;10516;51.518;9.864;2022-12-20T06:25:45;98887.63;;;2.26;93.14
20710;BME280;10516;51.518;9.864;2022-12-20T06:28:10;98909.91;;;2.24;94.01
20710;BME280;10516;51.518;9.864;2022-12-20T06:30:35;98908.84;;;2.18;93.99
20710;BME280;10516;51.518;9.864;2022-12-20T06:33:01;98908.66;;;2.20;94.24
20710;BME280;10516;51.518;9.864;2022-12-20T06:35:28;98911.75;;;2.30;93.54
20710;BME280;10516;51.518;9.864;2022-12-20T06:37:53;98912.53;;;2.24;93.55
20710;BME280;10516;51.518;9.864;2022-12-20T06:40:19;98914.09;;;2.18;94.54
20710;BME280;10516;51.518;9.864;2022-12-20T06:42:44;98911.47;;;2.18;94.40
20710;BME280;10516;51.518;9.864;2022-12-20T06:45:10;98901.38;;;2.22;93.92
20710;BME280;10516;51.518;9.864;2022-12-20T06:47:35;98902.66;;;2.33;93.53
20710;BME280;10516;51.518;9.864;2022-12-20T06:50:01;98916.44;;;2.35;93.42
20710;BME280;10516;51.518;9.864;2022-12-20T06:52:26;98902.81;;;2.24;93.60
20710;BME280;10516;51.518;9.864;2022-12-20T06:54:52;98909.91;;;2.24;94.54
20710;BME280;10516;51.518;9.864;2022-12-20T06:57:17;98898.75;;;2.22;94.25
20710;BME280;10516;51.518;9.864;2022-12-20T06:59:43;98894.06;;;2.17;95.19
20710;BME280;10516;51.518;9.864;2022-12-20T07:02:12;98885.97;;;2.19;94.29
20710;BME280;10516;51.518;9.864;2022-12-20T07:04:38;98894.09;;;2.24;94.77
20710;BME280;10516;51.518;9.864;2022-12-20T07:07:03;98894.47;;;2.21;95.25
20710;BME280;10516;51.518;9.864;2022-12-20T07:09:29;98899.78;;;2.27;94.95
20710;BME280;10516;51.518;9.864;2022-12-20T07:11:55;98906.03;;;2.20;95.19
20710;BME280;10516;51.518;9.864;2022-12-20T07:14:20;98884.97;;;2.20;95.08
20710;BME280;10516;51.518;9.864;2022-12-20T07:16:45;98900.94;;;2.18;95.15
20710;BME280;10516;51.518;9.864;2022-12-20T07:19:12;98891.72;;;2.01;97.39
20710;BME280;10516;51.518;9.864;2022-12-20T07:21:38;98884.69;;;2.08;96.14
20710;BME280;10516;51.518;9.864;2022-12-20T07:24:04;98879.63;;;2.07;97.31
20710;BME280;10516;51.518;9.864;2022-12-20T07:26:30;98880.66;;;2.12;95.92
20710;BME280;10516;51.518;9.864;2022-12-20T07:28:55;98894.91;;;2.24;95.84
20710;BME280;10516;51.518;9.864;2022-12-20T07:31:21;98899.19;;;2.32;95.55
20710;BME280;10516;51.518;9.864;2022-12-20T07:33:46;98892.91;;;2.26;95.52
20710;BME280;10516;51.518;9.864;2022-12-20T07:36:13;98886.25;;;2.31;95.19
20710;BME280;10516;51.518;9.864;2022-12-20T07:38:41;98889.03;;;2.22;95.58
20710;BME280;10516;51.518;9.864;2022-12-20T07:41:12;98873.28;;;2.29;95.04
20710;BME280;10516;51.518;9.864;2022-12-20T07:43:38;98883.00;;;2.28;93.92
20710;BME280;10516;51.518;9.864;2022-12-20T07:46:04;98878.56;;;2.36;93.41
20710;BME280;10516;51.518;9.864;2022-12-20T07:48:30;98883.19;;;2.27;93.85
20710;BME280;10516;51.518;9.864;2022-12-20T07:51:02;98886.19;;;2.24;94.62
20710;BME280;10516;51.518;9.864;2022-12-20T07:53:33;98879.09;;;2.18;94.39
20710;BME280;10516;51.518;9.864;2022-12-20T07:56:00;98878.91;;;2.26;94.20
20710;BME280;10516;51.518;9.864;2022-12-20T07:58:28;98880.56;;;2.27;94.40
20710;BME280;10516;51.518;9.864;2022-12-20T08:00:55;98893.13;;;2.32;94.36
20710;BME280;10516;51.518;9.864;2022-12-20T08:03:25;98887.22;;;2.29;94.58
20710;BME280;10516;51.518;9.864;2022-12-20T08:05:54;98877.47;;;2.23;94.76
20710;BME280;10516;51.518;9.864;2022-12-20T08:08:22;98872.19;;;2.17;94.86
20710;BME280;10516;51.518;9.864;2022-12-20T08:10:48;98853.91;;;2.09;95.24
20710;BME280;10516;51.518;9.864;2022-12-20T08:13:14;98866.09;;;2.16;95.09
20710;BME280;10516;51.518;9.864;2022-12-20T08:15:40;98860.06;;;2.22;94.47
20710;BME280;10516;51.518;9.864;2022-12-20T08:18:05;98867.72;;;2.17;94.07
20710;BME280;10516;51.518;9.864;2022-12-20T08:20:31;98874.59;;;2.18;94.23
20710;BME280;10516;51.518;9.864;2022-12-20T08:22:56;98859.81;;;2.11;94.93
20710;BME280;10516;51.518;9.864;2022-12-20T08:25:22;98856.84;;;2.27;93.58
20710;BME280;10516;51.518;9.864;2022-12-20T08:27:47;98862.94;;;2.34;93.38
20710;BME280;10516;51.518;9.864;2022-12-20T08:30:14;98862.91;;;2.27;93.65
20710;BME280;10516;51.518;9.864;2022-12-20T08:32:39;98877.34;;;2.38;92.87
20710;BME280;10516;51.518;9.864;2022-12-20T08:35:05;98866.44;;;2.41;92.52
20710;BME280;10516;51.518;9.864;2022-12-20T08:37:31;98845.34;;;2.35;92.62
20710;BME280;10516;51.518;9.864;2022-12-20T08:39:56;98844.38;;;2.42;93.07
20710;BME280;10516;51.518;9.864;2022-12-20T08:42:22;98839.88;;;2.43;92.85
20710;BME280;10516;51.518;9.864;2022-12-20T08:44:47;98844.94;;;2.38;93.72
20710;BME280;10516;51.518;9.864;2022-12-20T08:47:13;98843.94;;;2.39;93.86
20710;BME280;10516;51.518;9.864;2022-12-20T08:49:38;98853.06;;;2.43;93.58
20710;BME280;10516;51.518;9.864;2022-12-20T08:52:03;98840.50;;;2.45;92.91
20710;BME280;10516;51.518;9.864;2022-12-20T08:54:29;98836.50;;;2.49;93.06
20710;BME280;10516;51.518;9.864;2022-12-20T08:56:54;98832.81;;;2.43;95.25
20710;BME280;10516;51.518;9.864;2022-12-20T08:59:20;98839.75;;;2.57;92.95
20710;BME280;10516;51.518;9.864;2022-12-20T09:01:45;98838.97;;;2.70;91.74
20710;BME280;10516;51.518;9.864;2022-12-20T09:04:11;98842.03;;;2.73;90.86
20710;BME280;10516;51.518;9.864;2022-12-20T09:06:37;98835.34;;;2.71;91.26
20710;BME280;10516;51.518;9.864;2022-12-20T09:09:03;98827.00;;;2.67;90.87
20710;BME280;10516;51.518;9.864;2022-12-20T09:11:29;98816.44;;;2.61;91.60
20710;BME280;10516;51.518;9.864;2022-12-20T09:13:56;98811.56;;;2.51;91.78
20710;BME280;10516;51.518;9.864;2022-12-20T09:16:25;98815.66;;;2.73;91.39
20710;BME280;10516;51.518;9.864;2022-12-20T09:18:53;98816.09;;;2.70;91.27
20710;BME280;10516;51.518;9.864;2022-12-20T09:21:19;98816.09;;;2.70;91.02
20710;BME280;10516;51.518;9.864;2022-12-20T09:23:45;98814.28;;;2.71;90.72
20710;BME280;10516;51.518;9.864;2022-12-20T09:26:14;98812.03;;;2.68;91.50
20710;BME280;10516;51.518;9.864;2022-12-20T09:28:41;98815.50;;;2.81;91.11
20710;BME280;10516;51.518;9.864;2022-12-20T09:31:10;98808.34;;;2.69;91.15
20710;BME280;10516;51.518;9.864;2022-12-20T09:33:36;98834.94;;;2.74;91.27
20710;BME280;10516;51.518;9.864;2022-12-20T09:36:02;98827.44;;;2.71;91.55
20710;BME280;10516;51.518;9.864;2022-12-20T09:38:29;98848.13;;;2.80;91.71
20710;BME280;10516;51.518;9.864;2022-12-20T09:41:02;98831.06;;;2.63;91.98
20710;BME280;10516;51.518;9.864;2022-12-20T09:43:28;98850.72;;;2.67;93.60
20710;BME280;10516;51.518;9.864;2022-12-20T09:46:00;98834.91;;;2.67;93.33
20710;BME280;10516;51.518;9.864;2022-12-20T09:48:37;98825.59;;;2.71;92.67
20710;BME280;10516;51.518;9.864;2022-12-20T09:51:13;98827.88;;;2.87;90.58
20710;BME280;10516;51.518;9.864;2022-12-20T09:56:29;98810.44;;;2.86;92.57
20710;BME280;10516;51.518;9.864;2022-12-20T09:58:58;98801.31;;;2.95;94.35
20710;BME280;10516;51.518;9.864;2022-12-20T10:01:26;98789.97;;;2.95;92.06
20710;BME280;10516;51.518;9.864;2022-12-20T10:03:54;98782.50;;;3.05;92.39
20710;BME280;10516;51.518;9.864;2022-12-20T10:09:12;98775.56;;;3.04;93.52
20710;BME280;10516;51.518;9.864;2022-12-20T10:17:11;98777.22;;;3.18;90.03
20710;BME280;10516;51.518;9.864;2022-12-20T10:22:17;98784.09;;;3.13;91.65
20710;BME280;10516;51.518;9.864;2022-12-20T10:25:00;98784.69;;;3.15;91.86
20710;BME280;10516;51.518;9.864;2022-12-20T10:27:26;98781.28;;;3.21;91.63
20710;BME280;10516;51.518;9.864;2022-12-20T10:29:51;98761.19;;;3.13;91.52
20710;BME280;10516;51.518;9.864;2022-12-20T10:32:21;98772.16;;;3.30;92.30
20710;BME280;10516;51.518;9.864;2022-12-20T10:37:34;98762.59;;;3.35;92.26
20710;BME280;10516;51.518;9.864;2022-12-20T10:39:59;98753.47;;;3.31;92.47
20710;BME280;10516;51.518;9.864;2022-12-20T10:42:38;98759.75;;;3.43;91.84
20710;BME280;10516;51.518;9.864;2022-12-20T10:47:44;98748.78;;;3.46;93.75
20710;BME280;10516;51.518;9.864;2022-12-20T10:50:19;98743.13;;;3.49;92.72
20710;BME280;10516;51.518;9.864;2022-12-20T10:55:39;98738.44;;;3.58;94.92
20710;BME280;10516;51.518;9.864;2022-12-20T10:58:29;98733.31;;;3.63;92.65
20710;BME280;10516;51.518;9.864;2022-12-20T11:01:26;98727.66;;;3.66;89.99
20710;BME280;10516;51.518;9.864;2022-12-20T11:06:24;98716.47;;;3.64;93.15
20710;BME280;10516;51.518;9.864;2022-12-20T11:08:50;98714.22;;;3.67;94.80
20710;BME280;10516;51.518;9.864;2022-12-20T11:11:21;98701.44;;;3.71;90.54
20710;BME280;10516;51.518;9.864;2022-12-20T11:13:49;98700.59;;;3.84;96.38
20710;BME280;10516;51.518;9.864;2022-12-20T11:18:54;98686.94;;;3.93;98.75
20710;BME280;10516;51.518;9.864;2022-12-20T11:21:56;98698.13;;;3.95;94.16
20710;BME280;10516;51.518;9.864;2022-12-20T11:24:20;98692.88;;;3.82;92.43
20710;BME280;10516;51.518;9.864;2022-12-20T11:27:18;98702.94;;;3.98;92.86
20710;BME280;10516;51.518;9.864;2022-12-20T11:35:51;98699.28;;;4.06;91.20
20710;BME280;10516;51.518;9.864;2022-12-20T11:38:33;98705.38;;;4.06;90.89
20710;BME280;10516;51.518;9.864;2022-12-20T11:41:14;98701.09;;;4.05;91.14
20710;BME280;10516;51.518;9.864;2022-12-20T11:49:27;98696.41;;;4.07;91.56
20710;BME280;10516;51.518;9.864;2022-12-20T11:52:07;98694.78;;;4.13;90.40
20710;BME280;10516;51.518;9.864;2022-12-20T11:57:24;98678.28;;;4.17;91.39
20710;BME280;10516;51.518;9.864;2022-12-20T11:59:55;98666.69;;;4.18;93.41
20710;BME280;10516;51.518;9.864;2022-12-20T12:02:33;98671.00;;;4.13;91.39
20710;BME280;10516;51.518;9.864;2022-12-20T12:05:06;98660.56;;;4.24;92.84
20710;BME280;10516;51.518;9.864;2022-12-20T12:07:34;98670.72;;;4.27;92.40
20710;BME280;10516;51.518;9.864;2022-12-20T12:10:13;98650.66;;;4.13;90.24
20710;BME280;10516;51.518;9.864;2022-12-20T12:12:45;98658.59;;;4.13;90.20
20710;BME280;10516;51.518;9.864;2022-12-20T12:17:59;98648.81;;;4.20;89.75
20710;BME280;10516;51.518;9.864;2022-12-20T12:23:15;98636.41;;;4.21;92.83
20710;BME280;10516;51.518;9.864;2022-12-20T12:25:43;98649.75;;;4.32;93.46
20710;BME280;10516;51.518;9.864;2022-12-20T12:28:13;98638.97;;;4.34;92.20
20710;BME280;10516;51.518;9.864;2022-12-20T12:30:55;98626.25;;;4.18;91.18
20710;BME280;10516;51.518;9.864;2022-12-20T12:33:29;98623.44;;;4.19;91.63
20710;BME280;10516;51.518;9.864;2022-12-20T12:42:04;98601.03;;;4.22;93.69
20710;BME280;10516;51.518;9.864;2022-12-20T12:47:12;98616.88;;;4.22;90.52
20710;BME280;10516;51.518;9.864;2022-12-20T12:49:40;98621.38;;;4.21;92.82
20710;BME280;10516;51.518;9.864;2022-12-20T12:52:06;98620.06;;;4.30;92.24
20710;BME280;10516;51.518;9.864;2022-12-20T12:54:39;98613.19;;;4.29;93.36
20710;BME280;10516;51.518;9.864;2022-12-20T12:57:15;98622.03;;;4.41;93.89
20710;BME280;10516;51.518;9.864;2022-12-20T12:59:45;98616.50;;;4.49;94.85
20710;BME280;10516;51.518;9.864;2022-12-20T13:15:02;98605.28;;;4.54;90.41
20710;BME280;10516;51.518;9.864;2022-12-20T13:17:53;98599.66;;;4.44;87.14
20710;BME280;10516;51.518;9.864;2022-12-20T13:20:33;98597.56;;;4.52;87.43
20710;BME280;10516;51.518;9.864;2022-12-20T13:25:47;98587.75;;;4.60;87.15
20710;BME280;10516;51.518;9.864;2022-12-20T13:33:41;98594.72;;;4.54;90.35
20710;BME280;10516;51.518;9.864;2022-12-20T13:38:50;98583.28;;;4.35;90.50
20710;BME280;10516;51.518;9.864;2022-12-20T13:44:02;98590.91;;;4.43;93.99
20710;BME280;10516;51.518;9.864;2022-12-20T13:46:44;98589.84;;;4.51;96.80
20710;BME280;10516;51.518;9.864;2022-12-20T13:49:21;98571.13;;;4.52;96.57
20710;BME280;10516;51.518;9.864;2022-12-20T13:51:48;98580.53;;;4.48;97.29
20710;BME280;10516;51.518;9.864;2022-12-20T13:54:17;98589.09;;;4.44;97.35
20710;BME280;10516;51.518;9.864;2022-12-20T13:56:50;98579.56;;;4.43;96.88
20710;BME280;10516;51.518;9.864;2022-12-20T13:59:27;98594.97;;;4.46;97.07
20710;BME280;10516;51.518;9.864;2022-12-20T14:02:00;98585.91;;;4.35;96.97
20710;BME280;10516;51.518;9.864;2022-12-20T14:04:41;98587.75;;;4.35;96.06
20710;BME280;10516;51.518;9.864;2022-12-20T14:07:12;98580.25;;;4.32;95.18
20710;BME280;10516;51.518;9.864;2022-12-20T14:09:44;98598.13;;;4.36;95.13
20710;BME280;10516;51.518;9.864;2022-12-20T14:12:14;98587.38;;;4.31;94.92
20710;BME280;10516;51.518;9.864;2022-12-20T14:14:46;98579.06;;;4.28;96.43
20710;BME280;10516;51.518;9.864;2022-12-20T14:17:48;98578.69;;;4.24;95.98
20710;BME280;10516;51.518;9.864;2022-12-20T14:20:13;98589.66;;;4.28;97.19
20710;BME280;10516;51.518;9.864;2022-12-20T14:22:55;98589.25;;;4.24;96.19
20710;BME280;10516;51.518;9.864;2022-12-20T14:25:51;98575.44;;;4.22;94.48
20710;BME280;10516;51.518;9.864;2022-12-20T14:30:49;98582.47;;;4.35;88.34
20710;BME280;10516;51.518;9.864;2022-12-20T14:33:18;98576.81;;;4.31;87.61
20710;BME280;10516;51.518;9.864;2022-12-20T14:35:48;98553.03;;;4.31;88.48
20710;BME280;10516;51.518;9.864;2022-12-20T14:38:24;98544.94;;;4.26;87.42
20710;BME280;10516;51.518;9.864;2022-12-20T14:40:53;98555.06;;;4.29;87.09
20710;BME280;10516;51.518;9.864;2022-12-20T14:43:33;98562.84;;;4.24;88.42
20710;BME280;10516;51.518;9.864;2022-12-20T14:46:14;98555.78;;;4.18;90.76
20710;BME280;10516;51.518;9.864;2022-12-20T14:48:40;98557.44;;;4.13;91.32
20710;BME280;10516;51.518;9.864;2022-12-20T14:51:06;98563.69;;;4.18;91.51
20710;BME280;10516;51.518;9.864;2022-12-20T14:53:32;98554.19;;;4.11;89.89